createdAt,value
2022-09-14T00:01:44.100Z,100838.63
2022-09-14T00:04:13.683Z,100834.56
2022-09-14T00:06:41.626Z,100836.38
2022-09-14T00:09:11.271Z,100839.22
2022-09-14T00:11:38.997Z,100831.31
2022-09-14T00:14:06.738Z,100828.69
2022-09-14T00:16:35.483Z,100820.19
2022-09-14T00:19:05.990Z,100806.44
2022-09-14T00:21:35.011Z,100810.47
2022-09-14T00:24:02.556Z,100806.81
2022-09-14T00:26:29.922Z,100801.53
2022-09-14T00:28:58.342Z,100800.94
2022-09-14T00:31:26.746Z,100801.34
2022-09-14T00:33:54.607Z,100804.19
2022-09-14T00:36:22.972Z,100795.69
2022-09-14T00:38:51.990Z,100799.13
2022-09-14T00:41:20.815Z,100793.66
2022-09-14T00:43:55.680Z,100791.00
2022-09-14T00:46:23.495Z,100791.59
2022-09-14T00:48:50.875Z,100777.47
2022-09-14T00:51:19.767Z,100783.31
2022-09-14T00:53:47.551Z,100771.78
2022-09-14T00:56:16.421Z,100770.75
2022-09-14T00:58:45.573Z,100760.22
2022-09-14T01:01:13.235Z,100767.31
2022-09-14T01:03:40.626Z,100763.28
2022-09-14T01:06:13.265Z,100763.91
2022-09-14T01:08:46.017Z,100755.44
2022-09-14T01:11:21.086Z,100755.06
2022-09-14T01:13:53.261Z,100748.38
2022-09-14T01:16:26.056Z,100741.72
2022-09-14T01:18:57.020Z,100741.31
2022-09-14T01:21:25.747Z,100738.66
2022-09-14T01:23:57.829Z,100738.06
2022-09-14T01:26:55.013Z,100741.50
2022-09-14T01:29:27.506Z,100739.31
2022-09-14T01:31:57.254Z,100742.97
2022-09-14T01:34:27.815Z,100735.66
2022-09-14T01:36:58.765Z,100742.53
2022-09-14T01:39:29.413Z,100742.53
2022-09-14T01:41:57.311Z,100740.50
2022-09-14T01:44:32.258Z,100734.03
2022-09-14T01:47:03.862Z,100737.94
2022-09-14T01:49:33.688Z,100730.59
2022-09-14T01:52:04.987Z,100726.72
2022-09-14T01:54:35.499Z,100725.72
2022-09-14T01:57:05.725Z,100717.00
2022-09-14T01:59:38.318Z,100719.84
2022-09-14T02:02:08.065Z,100718.03
2022-09-14T02:04:38.484Z,100711.75
2022-09-14T02:07:05.881Z,100711.75
2022-09-14T02:09:33.829Z,100708.75
2022-09-14T02:12:01.421Z,100701.63
2022-09-14T02:14:28.804Z,100708.97
2022-09-14T02:16:57.537Z,100705.31
2022-09-14T02:19:26.915Z,100709.53
2022-09-14T02:21:54.307Z,100718.69
2022-09-14T02:24:21.723Z,100707.56
2022-09-14T02:26:49.908Z,100708.59
2022-09-14T02:29:17.308Z,100694.81
2022-09-14T02:31:52.767Z,100693.81
2022-09-14T02:34:25.247Z,100691.59
2022-09-14T02:36:56.013Z,100686.34
2022-09-14T02:39:27.952Z,100675.22
2022-09-14T02:42:00.209Z,100679.09
2022-09-14T02:44:31.922Z,100669.38
2022-09-14T02:47:02.460Z,100676.63
2022-09-14T02:49:35.336Z,100674.41
2022-09-14T02:52:04.524Z,100675.81
2022-09-14T02:54:34.118Z,100676.41
2022-09-14T02:57:02.120Z,100681.66
2022-09-14T02:59:30.090Z,100668.50
2022-09-14T03:01:57.864Z,100667.31
2022-09-14T03:04:25.228Z,100662.50
2022-09-14T03:06:54.002Z,100657.25
2022-09-14T03:09:21.374Z,100646.72
2022-09-14T03:11:48.777Z,100656.22
2022-09-14T03:14:16.176Z,100644.28
2022-09-14T03:16:43.606Z,100640.03
2022-09-14T03:19:12.143Z,100649.97
2022-09-14T03:21:40.027Z,100648.75
2022-09-14T03:24:08.782Z,100643.47
2022-09-14T03:26:38.702Z,100653.22
2022-09-14T03:29:06.883Z,100639.44
2022-09-14T03:31:34.790Z,100644.72
2022-09-14T03:34:02.696Z,100630.75
2022-09-14T03:36:31.233Z,100629.13
2022-09-14T03:38:59.519Z,100622.25
2022-09-14T03:41:28.473Z,100619.03
2022-09-14T03:43:55.873Z,100622.25
2022-09-14T03:46:24.732Z,100616.34
2022-09-14T03:48:52.302Z,100611.53
2022-09-14T03:51:19.701Z,100614.38
2022-09-14T03:53:47.130Z,100612.75
2022-09-14T03:56:16.087Z,100607.28
2022-09-14T03:58:45.149Z,100617.22
2022-09-14T04:01:14.443Z,100612.16
2022-09-14T04:03:41.908Z,100608.16
2022-09-14T04:06:09.962Z,100614.22
2022-09-14T04:08:38.373Z,100606.56
2022-09-14T04:11:09.176Z,100607.13
2022-09-14T04:13:36.545Z,100609.97
2022-09-14T04:16:05.653Z,100612.84
2022-09-14T04:18:33.443Z,100614.66
2022-09-14T04:21:07.253Z,100609.22
2022-09-14T04:23:42.359Z,100605.78
2022-09-14T04:26:19.852Z,100603.16
2022-09-14T04:28:47.486Z,100602.53
2022-09-14T04:31:16.404Z,100595.94
2022-09-14T04:33:44.714Z,100598.56
2022-09-14T04:36:13.817Z,100594.91
2022-09-14T04:38:42.027Z,100606.81
2022-09-14T04:41:10.634Z,100593.66
2022-09-14T04:43:38.631Z,100592.03
2022-09-14T04:46:07.198Z,100592.28
2022-09-14T04:48:36.289Z,100602.56
2022-09-14T04:51:04.284Z,100600.53
2022-09-14T04:53:31.690Z,100597.28
2022-09-14T04:56:02.303Z,100590.47
2022-09-14T04:58:30.175Z,100591.25
2022-09-14T05:01:02.020Z,100589.66
2022-09-14T05:03:29.401Z,100589.84
2022-09-14T05:06:02.012Z,100588.84
2022-09-14T05:08:29.387Z,100587.00
2022-09-14T05:10:57.068Z,100597.53
2022-09-14T05:13:24.532Z,100595.94
2022-09-14T05:15:52.169Z,100599.16
2022-09-14T05:18:19.607Z,100591.47
2022-09-14T05:20:46.995Z,100596.75
2022-09-14T05:23:15.723Z,100597.53
2022-09-14T05:25:43.072Z,100603.19
2022-09-14T05:28:10.428Z,100596.75
2022-09-14T05:30:40.259Z,100604.63
2022-09-14T05:33:07.670Z,100594.50
2022-09-14T05:35:35.070Z,100597.13
2022-09-14T05:38:02.394Z,100597.13
2022-09-14T05:40:31.176Z,100600.56
2022-09-14T05:42:58.607Z,100589.84
2022-09-14T05:45:25.972Z,100587.41
2022-09-14T05:47:53.364Z,100588.38
2022-09-14T05:50:20.733Z,100588.97
2022-09-14T05:52:48.981Z,100595.84
2022-09-14T05:55:16.337Z,100590.97
2022-09-14T05:57:49.250Z,100580.44
2022-09-14T06:00:16.950Z,100584.69
2022-09-14T06:02:46.671Z,100585.50
2022-09-14T06:05:14.112Z,100588.72
2022-09-14T06:07:41.524Z,100590.84
2022-09-14T06:10:09.392Z,100595.84
2022-09-14T06:12:37.097Z,100584.94
2022-09-14T06:15:06.219Z,100604.34
2022-09-14T06:17:33.583Z,100603.69
2022-09-14T06:20:04.471Z,100600.19
2022-09-14T06:22:32.599Z,100600.56
2022-09-14T06:24:59.928Z,100601.75
2022-09-14T06:27:27.871Z,100598.44
2022-09-14T06:29:55.213Z,100594.13
2022-09-14T06:32:24.166Z,100598.69
2022-09-14T06:34:51.472Z,100601.06
2022-09-14T06:37:18.811Z,100605.16
2022-09-14T06:39:46.332Z,100601.59
2022-09-14T06:42:13.740Z,100597.50
2022-09-14T06:44:41.150Z,100605.19
2022-09-14T06:47:08.494Z,100594.66
2022-09-14T06:49:37.177Z,100593.63
2022-09-14T06:52:04.636Z,100600.63
2022-09-14T06:54:32.104Z,100602.97
2022-09-14T06:56:59.454Z,100595.13
2022-09-14T06:59:26.845Z,100594.41
2022-09-14T07:01:54.341Z,100591.88
2022-09-14T07:04:21.790Z,100588.50
2022-09-14T07:06:50.863Z,100594.16
2022-09-14T07:09:18.869Z,100598.31
2022-09-14T07:11:46.697Z,100599.19
2022-09-14T07:14:14.039Z,100593.13
2022-09-14T07:16:41.499Z,100591.94
2022-09-14T07:19:11.590Z,100594.78
2022-09-14T07:21:39.098Z,100600.28
2022-09-14T07:24:07.947Z,100601.16
2022-09-14T07:26:39.426Z,100598.19
2022-09-14T07:29:07.597Z,100596.28
2022-09-14T07:31:36.347Z,100593.06
2022-09-14T07:34:04.711Z,100596.03
2022-09-14T07:36:34.769Z,100594.56
2022-09-14T07:39:03.229Z,100590.81
2022-09-14T07:41:34.036Z,100597.09
2022-09-14T07:44:02.445Z,100595.06
2022-09-14T07:46:30.585Z,100595.94
2022-09-14T07:48:58.781Z,100572.03
2022-09-14T07:51:26.287Z,100596.50
2022-09-14T07:53:53.671Z,100592.44
2022-09-14T07:56:21.792Z,100596.81
2022-09-14T07:58:56.689Z,100602.25
2022-09-14T08:01:29.670Z,100604.09
2022-09-14T08:03:59.775Z,100594.84
2022-09-14T08:06:29.227Z,100599.13
2022-09-14T08:08:57.162Z,100605.34
2022-09-14T08:11:25.157Z,100600.75
2022-09-14T08:13:54.941Z,100610.53
2022-09-14T08:16:22.868Z,100604.25
2022-09-14T08:18:53.933Z,100598.34
2022-09-14T08:21:21.271Z,100594.09
2022-09-14T08:23:48.719Z,100584.09
2022-09-14T08:26:16.692Z,100583.91
2022-09-14T08:28:44.315Z,100582.88
2022-09-14T08:31:14.076Z,100576.56
2022-09-14T08:33:42.545Z,100575.00
2022-09-14T08:36:10.590Z,100585.66
2022-09-14T08:38:38.256Z,100587.47
2022-09-14T08:41:10.311Z,100575.34
2022-09-14T08:43:39.214Z,100576.25
2022-09-14T08:46:11.241Z,100572.84
2022-09-14T08:48:44.408Z,100576.25
2022-09-14T08:51:11.941Z,100578.13
2022-09-14T08:53:40.723Z,100574.31
2022-09-14T08:56:13.721Z,100567.91
2022-09-14T08:58:48.654Z,100509.59
2022-09-14T09:01:20.528Z,100565.72
2022-09-14T09:04:00.008Z,100527.25
2022-09-14T09:06:30.350Z,100576.50
2022-09-14T09:09:04.004Z,100572.00
2022-09-14T09:11:38.511Z,100568.13
2022-09-14T09:14:12.439Z,100572.13
2022-09-14T09:16:42.999Z,100570.94
2022-09-14T09:19:16.635Z,100569.59
2022-09-14T09:21:46.191Z,100572.13
2022-09-14T09:24:17.768Z,100564.88
2022-09-14T09:26:45.155Z,100565.31
2022-09-14T09:29:12.856Z,100568.63
2022-09-14T09:31:44.196Z,100572.53
2022-09-14T09:34:14.975Z,100573.44
2022-09-14T09:36:43.286Z,100572.19
2022-09-14T09:39:10.746Z,100565.97
2022-09-14T09:41:43.914Z,100565.88
2022-09-14T09:44:11.564Z,100565.97
2022-09-14T09:46:39.839Z,100568.38
2022-09-14T09:49:17.861Z,100572.94
2022-09-14T09:51:45.538Z,100566.84
2022-09-14T09:54:23.332Z,100568.97
2022-09-14T09:56:53.903Z,100573.19
2022-09-14T09:59:32.307Z,100573.81
2022-09-14T10:02:15.282Z,100573.38
2022-09-14T10:04:57.071Z,100566.59
2022-09-14T10:07:24.741Z,100573.75
2022-09-14T10:09:58.336Z,100577.34
2022-09-14T10:12:25.952Z,100577.38
2022-09-14T10:15:04.413Z,100563.19
2022-09-14T10:17:31.833Z,100578.41
2022-09-14T10:20:00.748Z,100566.91
2022-09-14T10:22:29.576Z,100562.44
2022-09-14T10:24:59.205Z,100547.84
2022-09-14T10:27:39.513Z,100551.13
2022-09-14T10:30:08.103Z,100551.50
2022-09-14T10:32:37.231Z,100552.88
2022-09-14T10:35:12.062Z,100544.72
2022-09-14T10:37:44.069Z,100546.94
2022-09-14T10:40:16.255Z,100543.03
2022-09-14T10:42:50.031Z,100544.50
2022-09-14T10:45:23.894Z,100543.50
2022-09-14T10:48:00.309Z,100547.91
2022-09-14T10:50:41.074Z,100546.16
2022-09-14T10:53:16.577Z,100545.03
2022-09-14T10:55:47.889Z,100546.16
2022-09-14T10:58:24.615Z,100546.22
2022-09-14T11:00:56.607Z,100552.69
2022-09-14T11:03:28.484Z,100549.50
2022-09-14T11:06:00.282Z,100549.84
2022-09-14T11:08:30.370Z,100557.38
2022-09-14T11:11:09.327Z,100547.06
2022-09-14T11:13:44.810Z,100492.16
2022-09-14T11:16:20.274Z,100551.22
2022-09-14T11:18:52.364Z,100549.75
2022-09-14T11:21:25.724Z,100549.44
2022-09-14T11:23:56.083Z,100548.72
2022-09-14T11:26:26.210Z,100543.16
2022-09-14T11:28:55.442Z,100546.13
2022-09-14T11:31:24.311Z,100553.59
2022-09-14T11:33:54.950Z,100555.84
2022-09-14T11:36:24.831Z,100555.19
2022-09-14T11:38:54.803Z,100557.63
2022-09-14T11:41:25.717Z,100554.78
2022-09-14T11:43:55.947Z,100554.25
2022-09-14T11:46:26.781Z,100546.00
2022-09-14T11:48:57.850Z,100551.91
2022-09-14T11:51:29.485Z,100549.88
2022-09-14T11:53:56.927Z,100550.44
2022-09-14T11:56:26.665Z,100541.00
2022-09-14T11:58:55.503Z,100544.09
2022-09-14T12:01:28.166Z,100548.47
2022-09-14T12:04:06.484Z,100542.25
2022-09-14T12:06:57.643Z,100497.34
2022-09-14T12:09:42.769Z,100545.47
2022-09-14T12:12:25.013Z,100542.63
2022-09-14T12:14:59.698Z,100536.31
2022-09-14T12:17:46.203Z,100536.19
2022-09-14T12:20:32.345Z,100531.88
2022-09-14T12:23:07.596Z,100533.31
2022-09-14T12:25:35.405Z,100528.09
2022-09-14T12:28:02.772Z,100521.97
2022-09-14T12:30:57.608Z,100521.94
2022-09-14T12:33:46.017Z,100532.53
2022-09-14T12:36:33.443Z,100523.78
2022-09-14T12:39:08.352Z,100523.22
2022-09-14T12:42:08.642Z,100517.03
2022-09-14T12:44:37.792Z,100520.59
2022-09-14T12:47:23.426Z,100512.34
2022-09-14T12:49:53.118Z,100518.00
2022-09-14T12:52:27.291Z,100504.34
2022-09-14T12:55:03.462Z,100507.28
2022-09-14T12:57:34.446Z,100499.03
2022-09-14T13:00:05.592Z,100502.53
2022-09-14T13:02:49.732Z,100496.66
2022-09-14T13:05:22.387Z,100509.13
2022-09-14T13:07:49.752Z,100504.38
2022-09-14T13:10:19.386Z,100497.81
2022-09-14T13:12:48.082Z,100496.63
2022-09-14T13:15:18.385Z,100492.75
2022-09-14T13:18:06.662Z,100480.38
2022-09-14T13:20:36.616Z,100482.69
2022-09-14T13:23:04.234Z,100485.16
2022-09-14T13:25:34.364Z,100478.78
2022-09-14T13:28:03.223Z,100489.19
2022-09-14T13:30:31.743Z,100490.97
2022-09-14T13:32:59.575Z,100482.75
2022-09-14T13:35:30.312Z,100482.56
2022-09-14T13:37:59.961Z,100480.69
2022-09-14T13:40:29.140Z,100473.16
2022-09-14T13:42:56.898Z,100478.53
2022-09-14T13:45:24.884Z,100482.91
2022-09-14T13:47:53.402Z,100477.22
2022-09-14T13:50:23.500Z,100475.28
2022-09-14T13:53:01.716Z,100469.59
2022-09-14T13:55:43.279Z,100466.53
2022-09-14T13:58:21.214Z,100465.50
2022-09-14T14:00:50.158Z,100463.34
2022-09-14T14:03:23.738Z,100459.66
2022-09-14T14:05:51.149Z,100463.44
2022-09-14T14:08:26.178Z,100454.03
2022-09-14T14:10:55.211Z,100453.91
2022-09-14T14:13:25.774Z,100459.00
2022-09-14T14:15:53.617Z,100452.13
2022-09-14T14:18:48.108Z,100450.31
2022-09-14T14:21:25.682Z,100445.78
2022-09-14T14:24:12.150Z,100434.81
2022-09-14T14:26:48.227Z,100442.91
2022-09-14T14:29:16.216Z,100437.25
2022-09-14T14:31:43.760Z,100439.63
2022-09-14T14:34:12.220Z,100434.03
2022-09-14T14:36:39.824Z,100425.31
2022-09-14T14:39:07.166Z,100424.91
2022-09-14T14:41:34.595Z,100428.53
2022-09-14T14:44:03.566Z,100418.19
2022-09-14T14:46:31.115Z,100417.16
2022-09-14T14:48:58.482Z,100414.72
2022-09-14T14:51:25.857Z,100417.56
2022-09-14T14:53:53.218Z,100422.34
2022-09-14T14:56:20.623Z,100424.97
2022-09-14T14:58:48.378Z,100419.31
2022-09-14T15:01:17.192Z,100419.25
2022-09-14T15:03:44.808Z,100421.31
2022-09-14T15:06:14.972Z,100414.34
2022-09-14T15:08:42.627Z,100380.41
2022-09-14T15:11:14.144Z,100406.13
2022-09-14T15:13:41.551Z,100415.03
2022-09-14T15:16:08.939Z,100414.47
2022-09-14T15:18:37.686Z,100399.44
2022-09-14T15:21:05.255Z,100408.66
2022-09-14T15:23:32.815Z,100411.44
2022-09-14T15:26:00.376Z,100407.25
2022-09-14T15:28:27.744Z,100416.06
2022-09-14T15:30:56.255Z,100413.63
2022-09-14T15:33:23.612Z,100412.19
2022-09-14T15:35:56.827Z,100403.28
2022-09-14T15:38:24.555Z,100405.38
2022-09-14T15:40:52.590Z,100398.06
2022-09-14T15:43:20.006Z,100400.91
2022-09-14T15:45:47.393Z,100396.03
2022-09-14T15:48:15.495Z,100401.88
2022-09-14T15:50:43.616Z,100408.13
2022-09-14T15:53:12.875Z,100409.34
2022-09-14T15:55:41.260Z,100406.94
2022-09-14T15:58:09.045Z,100407.66
2022-09-14T16:00:36.944Z,100416.16
2022-09-14T16:03:04.709Z,100415.00
2022-09-14T16:05:34.167Z,100419.78
2022-09-14T16:08:01.754Z,100370.47
2022-09-14T16:10:30.534Z,100424.50
2022-09-14T16:12:57.877Z,100434.91
2022-09-14T16:15:25.325Z,100431.19
2022-09-14T16:17:53.039Z,100438.13
2022-09-14T16:20:20.806Z,100433.31
2022-09-14T16:22:48.344Z,100441.31
2022-09-14T16:25:16.181Z,100439.63
2022-09-14T16:27:44.904Z,100446.47
2022-09-14T16:30:12.827Z,100443.78
2022-09-14T16:32:40.234Z,100452.31
2022-09-14T16:35:08.393Z,100397.41
2022-09-14T16:37:35.946Z,100449.59
2022-09-14T16:40:03.967Z,100456.38
2022-09-14T16:42:31.401Z,100450.00
2022-09-14T16:45:00.128Z,100454.22
2022-09-14T16:47:27.545Z,100446.50
2022-09-14T16:49:55.125Z,100449.59
2022-09-14T16:52:22.484Z,100441.81
2022-09-14T16:54:53.002Z,100452.06
2022-09-14T16:57:25.314Z,100456.06
2022-09-14T16:59:52.708Z,100452.03
2022-09-14T17:02:21.493Z,100448.88
2022-09-14T17:04:48.899Z,100449.03
2022-09-14T17:07:16.265Z,100455.88
2022-09-14T17:09:44.091Z,100451.56
2022-09-14T17:12:11.468Z,100462.09
2022-09-14T17:14:38.961Z,100455.69
2022-09-14T17:17:06.780Z,100464.72
2022-09-14T17:19:35.489Z,100457.03
2022-09-14T17:22:03.783Z,100460.84
2022-09-14T17:24:31.237Z,100462.44
2022-09-14T17:26:58.585Z,100467.13
2022-09-14T17:29:26.056Z,100469.75
2022-09-14T17:31:55.319Z,100469.94
2022-09-14T17:34:22.788Z,100470.16
2022-09-14T17:36:51.594Z,100471.94
2022-09-14T17:39:18.997Z,100474.22
2022-09-14T17:41:46.397Z,100475.19
2022-09-14T17:44:14.822Z,100481.78
2022-09-14T17:46:51.101Z,100476.13
2022-09-14T17:49:19.464Z,100479.78
2022-09-14T17:51:47.207Z,100480.81
2022-09-14T17:54:15.960Z,100478.28
2022-09-14T17:56:43.304Z,100487.19
2022-09-14T17:59:11.610Z,100485.34
2022-09-14T18:01:39.269Z,100487.44
2022-09-14T18:04:08.427Z,100493.25
2022-09-14T18:06:36.882Z,100490.53
2022-09-14T18:09:05.475Z,100497.75
2022-09-14T18:11:34.297Z,100496.34
2022-09-14T18:14:01.744Z,100499.72
2022-09-14T18:16:29.428Z,100499.31
2022-09-14T18:18:58.031Z,100501.09
2022-09-14T18:21:25.707Z,100509.91
2022-09-14T18:23:54.087Z,100512.19
2022-09-14T18:26:22.268Z,100512.56
2022-09-14T18:28:51.949Z,100519.28
2022-09-14T18:31:20.214Z,100517.28
2022-09-14T18:33:48.222Z,100525.69
2022-09-14T18:36:15.729Z,100521.84
2022-09-14T18:38:43.273Z,100523.53
2022-09-14T18:41:11.490Z,100521.59
2022-09-14T18:43:39.367Z,100524.75
2022-09-14T18:46:08.677Z,100527.88
2022-09-14T18:48:36.157Z,100524.13
2022-09-14T18:51:04.442Z,100524.38
2022-09-14T18:53:31.922Z,100524.47
2022-09-14T18:56:01.130Z,100525.72
2022-09-14T18:58:28.681Z,100531.81
2022-09-14T19:00:56.964Z,100533.34
2022-09-14T19:03:25.720Z,100530.13
2022-09-14T19:05:53.125Z,100537.69
2022-09-14T19:08:20.499Z,100534.63
2022-09-14T19:10:47.967Z,100532.66
2022-09-14T19:13:15.722Z,100533.81
2022-09-14T19:15:43.420Z,100537.81
2022-09-14T19:18:10.995Z,100530.59
2022-09-14T19:21:04.760Z,100528.41
2022-09-14T19:23:27.752Z,100533.34
2022-09-14T19:25:55.396Z,100539.66
2022-09-14T19:28:23.033Z,100533.03
2022-09-14T19:30:50.472Z,100530.59
2022-09-14T19:33:17.943Z,100536.09
2022-09-14T19:35:46.953Z,100478.75
2022-09-14T19:38:14.567Z,100539.31
2022-09-14T19:40:50.861Z,100542.84
2022-09-14T19:43:18.413Z,100542.97
2022-09-14T19:45:46.268Z,100532.06
2022-09-14T19:48:13.702Z,100537.00
2022-09-14T19:50:41.606Z,100538.72
2022-09-14T19:53:10.678Z,100539.59
2022-09-14T19:55:38.210Z,100537.63
2022-09-14T19:58:06.123Z,100540.75
2022-09-14T20:00:34.059Z,100537.38
2022-09-14T20:03:01.506Z,100537.84
2022-09-14T20:05:29.224Z,100543.22
2022-09-14T20:07:56.871Z,100545.28
2022-09-14T20:10:26.590Z,100551.19
2022-09-14T20:12:54.317Z,100542.50
2022-09-14T20:15:21.837Z,100536.41
2022-09-14T20:17:49.232Z,100544.31
2022-09-14T20:20:17.163Z,100546.44
2022-09-14T20:22:44.679Z,100542.78
2022-09-14T20:25:12.290Z,100550.69
2022-09-14T20:27:41.221Z,100552.31
2022-09-14T20:30:09.657Z,100551.28
2022-09-14T20:32:37.133Z,100548.41
2022-09-14T20:35:04.767Z,100547.97
2022-09-14T20:37:32.185Z,100544.06
2022-09-14T20:39:59.629Z,100476.22
2022-09-14T20:42:27.315Z,100546.97
2022-09-14T20:44:56.028Z,100539.84
2022-09-14T20:47:24.334Z,100543.38
2022-09-14T20:49:51.850Z,100543.22
2022-09-14T20:52:20.491Z,100544.13
2022-09-14T20:54:48.083Z,100548.22
2022-09-14T20:57:15.452Z,100547.53
2022-09-14T20:59:42.782Z,100547.59
2022-09-14T21:02:11.618Z,100558.00
2022-09-14T21:04:39.250Z,100554.41
2022-09-14T21:07:06.976Z,100554.03
2022-09-14T21:09:35.816Z,100556.56
2022-09-14T21:12:03.449Z,100564.28
2022-09-14T21:14:31.084Z,100562.09
2022-09-14T21:16:58.566Z,100570.66
2022-09-14T21:19:28.230Z,100566.25
2022-09-14T21:21:55.719Z,100566.72
2022-09-14T21:24:23.522Z,100562.91
2022-09-14T21:26:50.936Z,100555.94
2022-09-14T21:29:20.225Z,100557.78
2022-09-14T21:31:48.600Z,100558.38
2022-09-14T21:34:16.232Z,100554.72
2022-09-14T21:36:46.415Z,100554.38
2022-09-14T21:39:15.357Z,100554.81
2022-09-14T21:41:44.107Z,100554.00
2022-09-14T21:44:11.559Z,100554.00
2022-09-14T21:46:39.159Z,100556.63
2022-09-14T21:49:06.610Z,100561.22
2022-09-14T21:51:35.370Z,100558.59
2022-09-14T21:54:05.173Z,100557.00
2022-09-14T21:56:33.143Z,100562.81
2022-09-14T21:59:01.425Z,100564.66
2022-09-14T22:01:29.483Z,100564.34
2022-09-14T22:03:57.175Z,100560.88
2022-09-14T22:06:27.265Z,100562.59
2022-09-14T22:08:55.078Z,100556.03
2022-09-14T22:11:24.780Z,100561.75
2022-09-14T22:13:55.318Z,100557.34
2022-09-14T22:16:23.555Z,100562.03
2022-09-14T22:18:51.943Z,100563.63
2022-09-14T22:21:20.001Z,100565.84
2022-09-14T22:23:49.409Z,100567.44
2022-09-14T22:26:16.783Z,100567.28
2022-09-14T22:28:45.694Z,100571.91
2022-09-14T22:31:13.338Z,100565.13
2022-09-14T22:33:40.867Z,100563.97
2022-09-14T22:36:08.572Z,100573.88
2022-09-14T22:38:35.954Z,100562.63
2022-09-14T22:41:04.245Z,100562.41
2022-09-14T22:43:32.178Z,100569.19
2022-09-14T22:46:01.505Z,100566.41
2022-09-14T22:48:28.969Z,100574.25
2022-09-14T22:50:57.502Z,100580.91
2022-09-14T22:53:25.858Z,100579.44
2022-09-14T22:55:53.519Z,100582.94
2022-09-14T22:58:22.286Z,100585.28
2022-09-14T23:00:49.953Z,100578.94
2022-09-14T23:03:19.169Z,100582.50
2022-09-14T23:05:50.649Z,100588.78
2022-09-14T23:08:18.209Z,100589.16
2022-09-14T23:10:46.262Z,100590.09
2022-09-14T23:13:13.602Z,100585.09
2022-09-14T23:15:41.278Z,100585.31
2022-09-14T23:18:08.650Z,100590.78
2022-09-14T23:20:38.223Z,100591.00
2022-09-14T23:23:05.843Z,100593.03
2022-09-14T23:25:34.627Z,100595.75
2022-09-14T23:28:02.004Z,100595.97
2022-09-14T23:30:29.590Z,100598.19
2022-09-14T23:32:56.992Z,100604.00
2022-09-14T23:35:24.345Z,100602.63
2022-09-14T23:37:53.105Z,100601.59
2022-09-14T23:40:20.509Z,100594.75
2022-09-14T23:42:48.310Z,100599.19
2022-09-14T23:45:16.147Z,100592.75
2022-09-14T23:47:43.571Z,100602.69
2022-09-14T23:50:11.059Z,100598.44
2022-09-14T23:52:39.186Z,100603.34
2022-09-14T23:55:08.759Z,100596.50
2022-09-14T23:57:36.563Z,100602.19
